Weather observations for the past three days for
Hebron, Hebron Municipal Airport
Metric (Imperial)
Date Time (cdt) Wind (kph) Vis. (km) Weather Sky Cond. Temperature (ºC) Relative Humidity Wind Chill (°C) Heat Index (°C) Pressure Precipitation (cm)
Air Dwpt 6 hour altimeter (cm) sea level (mb) 1 hr 3 hr 6 hr
Max. Min.
03 18:35 S 19 16.09 Fair CLR 35 19.2 39% 37 75.59 0.0
03 18:15 S 13 G 26 16.09 Fair CLR 35.6 19.3 38% 38 75.59 0.0
03 17:55 S 19 G 26 16.09 Fair CLR 36.1 18.9 36% 38 75.57 0.0
03 17:35 S 28 G 39 16.09 Fair CLR 36.5 18.4 34% 38 75.59 0.0
03 17:15 S 24 G 33 16.09 Fair CLR 36.5 19 36% 39 75.59 0.0
03 16:55 S 31 G 41 16.09 Fair CLR 36.6 18.7 35% 39 75.59 0.0
03 16:35 S 26 G 39 16.09 Fair CLR 36.8 19.4 36% 39 75.62 0.0
03 16:15 S 26 G 35 16.09 Fair CLR 36.2 19.4 37% 39 75.64 0.0
03 15:55 S 28 G 33 16.09 Fair CLR 36.1 20.1 39% 39 75.64 0.0
03 15:35 S 22 16.09 Fair CLR 35.8 20.1 40% 39 75.67 0.0
03 15:15 S 19 G 31 16.09 Fair CLR 36 20.3 40% 39 75.69 0.0
03 14:55 S 20 G 31 16.09 Fair CLR 35.8 20 40% 39 75.69 0.0
03 14:35 S 20 G 35 16.09 Fair CLR 35.9 19.4 38% 38 75.72 0.0
03 14:15 S 20 G 30 16.09 Fair CLR 35.6 19.6 39% 38 75.72 0.0
03 13:55 S 24 G 33 16.09 Fair CLR 35.3 18.9 38% 37 75.74 0.0
03 13:35 S 22 G 35 16.09 Fair CLR 34.7 19.3 40% 37 75.74 0.0
03 13:15 S 26 G 35 16.09 Fair CLR 34 20.4 45% 37 75.74 0.0
03 12:55 S 28 G 37 16.09 Fair CLR 33.7 20 33.7 26.1 45% 36 75.77 0.0
03 12:35 S 30 G 39 16.09 Fair CLR 33 20.2 47% 35 75.77 0.0
03 12:15 SW 26 G 46 16.09 Fair CLR 32.3 19.7 47% 34 75.77 0.0
03 11:55 S 33 G 43 16.09 Fair and Breezy CLR 32.1 19.3 47% 34 75.77 0.0
03 11:35 S 24 G 35 16.09 Fair CLR 32 19.8 48% 34 75.79 0.0
03 11:15 S 24 G 35 16.09 Fair CLR 30.5 20 53% 32 75.77 0.0
03 10:55 S 22 G 35 16.09 Partly Cloudy SCT120 30.1 19.9 54% 32 75.79 0.0
03 10:35 SW 20 G 30 16.09 Partly Cloudy SCT120 30.5 19.9 53% 32 75.82 0.0
03 10:15 S 17 G 26 16.09 Fair CLR 28.5 19.6 59% 30 75.82 0.0
03 09:55 S 24 G 31 16.09 Fair CLR 29 19.7 57% 31 75.82 0.0
03 09:35 S 22 G 33 16.09 Fair CLR 28.6 19.4 58% 30 75.82 0.0
03 09:15 S 20 G 30 16.09 Fair CLR 27.8 19.1 59% 29 75.82 0.0
03 08:55 S 17 16.09 Fair CLR 27.1 19.1 62% 28 75.82 0.0
03 08:35 S 13 16.09 Fair CLR 26.7 18.9 62% 28 75.84 0.0
03 08:15 S 11 16.09 Fair CLR 26.2 18.6 63% 27 75.87 0.0
03 07:55 S 11 16.09 Fair CLR 26.3 18.3 62% 27 75.84 0.0
03 07:35 S 15 16.09 Partly Cloudy SCT120 26.5 18.1 60% 27 75.82 0.0
03 07:15 S 13 16.09 Partly Cloudy SCT110 26.5 18 60% 27 75.82 0.0
03 06:55 S 17 G 26 16.09 Partly Cloudy SCT110 26.7 17.7 27.8 25.1 58% 28 75.82 0.0
03 06:35 S 15 16.09 Partly Cloudy SCT110 26.5 17.8 59% 27 75.82 0.0
03 06:15 S 15 16.09 Partly Cloudy SCT110 26.5 17.7 59% 27 75.82 0.0
03 05:55 S 17 G 26 16.09 Fair CLR 26.5 17.5 58% 27 75.82 0.0
03 05:35 S 17 16.09 Fair CLR 25.8 17.7 61% 27 75.82 0.0
03 05:15 S 13 16.09 Fair CLR 25.2 17.7 63% 26 75.82 0.0
03 04:55 S 11 16.09 Fair CLR 25.2 17.7 63% 26 75.82 0.0
03 04:35 S 11 16.09 Partly Cloudy SCT120 25.8 17.6 61% 27 75.82 0.0
03 04:15 S 13 16.09 Partly Cloudy SCT110 26.3 17.5 58% 27 75.82 0.0
03 03:55 S 15 16.09 Partly Cloudy SCT110 26.7 17.4 57% 28 75.82 0.0
03 03:35 S 17 16.09 Fair CLR 27.2 17.2 54% 28 75.82 0.0
03 03:15 S 17 16.09 Mostly Cloudy BKN110 27.5 17.2 53% 28 75.82 0.0
03 02:55 S 17 16.09 Mostly Cloudy BKN110 27.6 17.2 53% 28 75.82 0.0
03 02:35 S 17 16.09 Partly Cloudy SCT110 27.6 17.2 53% 28 75.82 0.0
03 02:15 S 17 16.09 Fair CLR 27.6 17.2 53% 28 75.84 0.0
03 01:55 S 11 16.09 Fair CLR 27.5 17.2 53% 28 75.84 0.0
03 01:35 S 13 16.09 Fair CLR 27.5 17.2 53% 28 75.82 0.0
03 01:15 S 15 16.09 Fair CLR 27.3 17.3 54% 28 75.82 0.0
03 00:55 S 11 16.09 Fair CLR 27.1 17.5 33.1 27 56% 28 75.82 0.0
03 00:35 S 11 16.09 Fair CLR 27.5 17.2 53% 28 75.82 0.0
03 00:15 S 13 16.09 Fair CLR 27.6 17 52% 28 75.82 0.0
02 23:55 S 13 16.09 Fair CLR 27.8 17 52% 28 75.82 0.0
02 23:35 S 15 16.09 Fair CLR 28.1 17 51% 29 75.82 0.0
02 23:15 S 17 16.09 Fair CLR 28 17.3 52% 29 75.82 0.0
02 22:55 S 17 16.09 Fair CLR 28 17.5 53% 29 75.82 0.0
02 22:35 S 15 16.09 Fair CLR 28 17.6 53% 29 75.82 0.0
02 22:15 S 13 16.09 Fair CLR 27.8 18 55% 29 75.79 0.0
02 21:55 S 11 16.09 Fair CLR 27.5 18.2 57% 28 75.79 0.0
02 21:35 SE 13 16.09 Fair CLR 27.6 18.2 57% 29 75.79 0.0
02 21:15 SE 11 16.09 Fair CLR 27 18.5 60% 28 75.77 0.0
02 20:55 SE 11 16.09 Fair CLR 27.4 18.5 58% 28 75.77 0.0
02 20:35 SE 9 16.09 Fair CLR 27.6 18.9 59% 29 75.74 0.0
02 20:15 SE 11 16.09 Fair CLR 28.5 18.6 55% 30 75.74 0.0
02 19:55 SE 9 16.09 Fair CLR 29.6 18.5 51% 31 75.74 0.0
02 19:35 SE 9 16.09 Fair CLR 31 18.2 46% 32 75.74 0.0
02 19:15 S 11 16.09 Fair CLR 32 18.4 44% 33 75.74 0.0
02 18:55 S 11 16.09 Fair CLR 33.1 18 37.2 33.1 41% 34 75.72 0.0
02 18:35 S 15 16.09 Fair CLR 34.5 16.9 35% 35 75.74 0.0
02 18:15 S 15 16.09 Fair CLR 35.1 16.9 34% 36 75.74 0.0
02 17:55 S 13 16.09 Fair CLR 35.6 17.4 34% 37 75.74 0.0
02 17:35 S 17 G 28 16.09 Fair CLR 36.4 16.4 30% 37 75.74 0.0
02 17:15 S 13 16.09 Fair CLR 36.5 16.8 31% 37 75.74 0.0
02 16:55 S 19 16.09 Fair CLR 36.8 16.8 31% 38 75.74 0.0
02 16:35 S 15 16.09 Fair CLR 36.6 17 31% 37 75.77 0.0
02 16:15 S 26 G 33 16.09 Fair CLR 36.8 17 31% 38 75.77 0.0
02 15:55 S 19 G 33 16.09 Fair CLR 37 17.2 31% 38 75.79 0.0
02 15:35 SW 17 G 30 16.09 Fair CLR 37.1 17.2 31% 38 75.82 0.0
02 15:15 S 17 G 31 16.09 Fair CLR 36.7 17.5 32% 38 75.84 0.0
02 14:55 S 20 G 33 16.09 Fair CLR 36.5 17 31% 37 75.84 0.0
02 14:35 S 22 G 30 16.09 Fair CLR 36.2 17.2 32% 37 75.87 0.0
02 14:15 S 20 G 31 16.09 Fair CLR 36 16.9 32% 37 75.9 0.0
02 13:55 S 24 G 31 16.09 Fair CLR 35.7 17.3 34% 37 75.9 0.0
02 13:40 SW 20 G 33 16.09 Fair CLR 35.2 16.7 33% 36 75.92 0.0
02 13:15 S 24 G 30 16.09 Fair CLR 34.7 17.8 37% 36 75.95 0.0
02 12:55 SW 19 G 35 16.09 Fair CLR 34 17.4 34 23.8 37% 35 75.95 0.0
02 12:35 SW 19 G 33 16.09 Fair CLR 33.1 17.1 38% 34 75.97 0.0
02 12:15 SW 19 G 30 16.09 Fair CLR 32.6 17.9 42% 33 76 0.0
02 11:55 S 22 G 31 16.09 Fair CLR 32.3 17.6 41% 33 76 0.0
02 11:35 SW 20 G 37 16.09 Fair CLR 31.9 16.9 41% 32 76 0.0
02 11:15 SW 22 G 37 16.09 Fair CLR 31.2 17.5 44% 32 76 0.0
02 10:55 SW 19 G 30 16.09 Fair CLR 30.5 17 44% 31 76 0.0
02 10:35 SW 17 G 33 16.09 Fair CLR 30.5 16.6 43% 31 76 0.0
02 10:15 SW 24 G 31 16.09 Fair CLR 29.6 17.1 47% 30 76 0.0
02 09:55 SW 19 G 26 16.09 Fair CLR 28.7 17.3 50% 29 76 0.0
02 09:35 SW 19 G 28 16.09 Fair CLR 28 16.8 51% 29 76 0.0
02 09:15 SW 17 16.09 Partly Cloudy SCT120 27.1 17.1 54% 28 76 0.0
02 08:55 SW 13 16.09 Partly Cloudy SCT120 26 16.7 57% 27 76.02 0.0
02 08:35 S 11 16.09 Fair CLR 24.3 16.4 61% 25 76.02 0.0
02 08:15 S 15 16.09 Fair CLR 24.2 15.7 59% 25 76.02 0.0
02 07:55 S 17 16.09 Partly Cloudy SCT120 24 15.5 59% 25 76.02 0.0
02 07:35 S 15 16.09 Fair CLR 23.8 15.2 59% 76.02 0.0
02 07:15 S 11 16.09 Fair CLR 24 15.1 58% 25 76 0.0
02 06:55 S 13 16.09 Fair CLR 24.5 15 26.8 24.5 56% 26 76 0.0
02 06:35 S 15 16.09 Fair CLR 24.7 14.9 55% 26 76 0.0
02 06:15 S 15 16.09 Fair CLR 24.7 15 55% 26 76 0.0
02 05:55 S 15 16.09 Fair CLR 24.9 15 54% 26 75.97 0.0
02 05:35 S 13 16.09 Fair CLR 24.7 15 55% 26 76 0.0
02 05:15 S 11 16.09 Fair CLR 25 15 54% 26 76 0.0
02 04:55 S 13 16.09 Fair CLR 25.1 15 54% 26 76 0.0
02 04:35 S 13 16.09 Fair CLR 24.9 15.1 55% 26 76 0.0
02 04:15 S 13 16.09 Fair CLR 25 15 54% 26 76 0.0
02 03:55 S 13 16.09 Fair CLR 25.1 15.1 54% 26 75.97 0.0
02 03:35 S 13 16.09 Partly Cloudy SCT110 25.5 15 52% 26 75.97 0.0
02 03:15 S 11 16.09 Partly Cloudy SCT110 25.3 15.1 53% 26 75.97 0.0
02 02:55 S 15 16.09 Fair CLR 25.5 15.1 53% 26 75.97 0.0
02 02:35 S 15 16.09 Fair CLR 25.1 15.3 55% 26 75.97 0.0
02 02:15 S 13 16.09 Fair CLR 25.3 15.4 54% 26 75.97 0.0
02 01:55 S 11 16.09 Partly Cloudy SCT120 25.7 15.4 53% 26 75.97 0.0
02 01:35 S 15 16.09 Mostly Cloudy BKN120 26 15.2 51% 27 75.97 0.0
02 01:15 S 13 16.09 Partly Cloudy SCT120 26.5 15.1 50% 27 75.97 0.0
02 00:55 S 15 16.09 Fair CLR 26.8 15.2 33.1 25.7 49% 27 75.95 0.0
02 00:35 S 15 16.09 Fair CLR 27.1 15.2 48% 27 75.95 0.0
02 00:15 S 17 16.09 Fair CLR 27.4 15.3 48% 28 75.97 0.0
01 23:55 S 13 16.09 Fair CLR 26.3 16.1 54% 27 75.97 0.0
01 23:35 S 13 16.09 Fair CLR 26 16.5 56% 27 75.97 0.0
01 23:15 S 13 16.09 Fair CLR 25.7 16.9 58% 27 75.97 0.0
01 22:55 S 9 16.09 Fair CLR 26 16.8 57% 27 75.97 0.0
01 22:35 S 11 16.09 Fair CLR 26 17 58% 27 75.95 0.0
01 22:15 S 11 16.09 Fair CLR 26.3 16.9 56% 27 75.95 0.0
01 21:55 S 11 16.09 Fair CLR 26.5 17 56% 27 75.92 0.0
01 21:35 S 9 16.09 Fair CLR 26.1 17.2 58% 27 75.92 0.0
01 21:15 S 9 16.09 Fair CLR 27 17.2 55% 28 75.9 0.0
01 20:55 S 11 16.09 Fair CLR 27.2 17.3 55% 28 75.87 0.0
01 20:35 S 11 16.09 Fair CLR 27.5 17.7 55% 28 75.84 0.0
01 20:15 S 9 16.09 Fair CLR 28.5 17.5 51% 29 75.84 0.0
01 19:55 S 9 16.09 Fair CLR 30.2 17.1 45% 31 75.82 0.0
01 19:35 S 9 16.09 Fair CLR 31 17.4 44% 32 75.82 0.0
01 19:15 S 11 16.09 Fair CLR 32.2 17.7 42% 33 75.82 0.0
01 18:55 S 15 16.09 Fair CLR 33.1 17.9 36.6 32.1 40% 34 75.84 0.0
01 18:35 S 7 16.09 Fair CLR 34.2 18.1 38% 35 75.84 0.0
01 18:15 S 11 16.09 Fair CLR 35 17.6 36% 36 75.84 0.0
01 17:55 S 9 16.09 Fair CLR 35.8 17.5 34% 37 75.84 0.0
01 17:35 SW 13 16.09 Fair CLR 36.4 16 30% 37 75.87 0.0
01 17:15 SW 11 16.09 Fair CLR 36.5 16.7 31% 37 75.87 0.0
01 16:55 SW 9 16.09 Fair CLR 36.5 15.7 29% 37 75.87 0.0
01 16:35 SW 15 16.09 Fair CLR 36.4 16.7 31% 37 75.9 0.0
01 16:15 SW 19 16.09 Partly Cloudy SCT120 36 16.6 32% 37 75.92 0.0
01 15:55 SW 15 16.09 Fair CLR 35.7 17.1 33% 36 75.92 0.0
01 15:35 SW 15 G 26 16.09 Fair CLR 35.7 17.1 33% 36 75.95 0.0
01 15:15 SW 17 G 26 16.09 Fair CLR 35.6 18.4 36% 37 75.97 0.0
01 14:55 S 17 G 26 16.09 Fair CLR 35.1 19.4 40% 37 75.97 0.0
01 14:35 SW 20 G 26 16.09 Fair CLR 35 20.5 43% 38 76 0.0
01 14:15 SW 19 G 30 16.09 Fair CLR 34.5 20.8 45% 38 76 0.0
01 13:55 SW 20 16.09 Fair CLR 34.1 20.8 46% 37 76.02 0.0
01 13:35 SW 11 16.09 Fair CLR 33.5 21.2 48% 37 76.02 0.0
01 13:15 SW 15 16.09 Fair CLR 32.6 20.7 49% 35 76.02 0.0
01 12:55 S 13 16.09 Fair CLR 32.1 20.7 32.1 23.9 51% 35 76.05 0.0 0.15
01 12:35 S 13 16.09 Fair CLR 31.7 20.7 52% 34 76.07 0.0
01 12:15 SW 11 16.09 Fair CLR 31.2 20 51% 33 76.1 0.0
01 11:55 S 13 16.09 Fair CLR 30.8 20.2 53% 33 76.1 0.0
01 11:35 SW 11 16.09 Fair CLR 30.1 19.7 54% 32 76.1 0.0
01 11:15 S 9 16.09 Fair CLR 29.6 19.7 55% 31 76.07 0.0
01 10:55 SW 15 16.09 Fair CLR 29.1 19.7 57% 31 76.07 0.0 0.15
01 09:15 SW 9 16.09 Fair CLR 26.2 17.2 58% 27 76.07 0.0
01 08:55 SW 15 16.09 Fair CLR 25.5 16.7 58% 26 76.07 0.0
01 08:35 SW 13 16.09 Fair CLR 25 16.5 59% 26 76.07 0.0
01 08:15 SW 11 16.09 Fair CLR 24.7 16.4 60% 26 76.07 0.0
01 07:55 SW 11 16.09 Fair CLR 24.3 16.1 60% 25 76.07 0.0
01 07:35 S 9 16.09 Fair CLR 24.1 15.8 60% 25 76.05 0.0
01 07:15 S 15 16.09 Fair CLR 24.1 15.6 59% 25 76.02 0.0
01 06:55 S 17 G 26 16.09 Fair CLR 24.2 15.6 24.7 21.3 59% 25 76.02 0.0
01 06:35 S 15 16.09 Fair CLR 23.9 15.8 61% 25 76 0.0
01 06:15 S 13 16.09 Fair CLR 23.6 16 63% 76 0.0
01 05:55 S 11 16.09 Fair CLR 23.8 16.1 62% 76 0.0
01 05:35 S 11 16.09 Fair CLR 24.1 16.2 61% 25 76.02 0.0
01 05:15 S 13 16.09 Fair CLR 24.1 16.2 61% 25 76.02 0.0
01 04:55 S 13 16.09 Fair CLR 24.3 16.3 61% 25 76.02 0.0
01 04:35 S 13 16.09 Fair CLR 24.5 16.5 61% 26 76.02 0.0
01 04:15 S 15 16.09 Fair CLR 24.7 16.5 60% 26 76.02 0.0
01 03:55 S 15 16.09 Fair CLR 24.6 16.7 62% 26 76.02 0.0
01 03:35 S 13 16.09 Fair CLR 24.1 17 65% 25 76.02 0.0
01 03:15 S 13 16.09 Fair CLR 23.3 17.4 70% 76.02 0.0
01 02:55 S 6 16.09 Fair CLR 22.5 17.8 75% 76.02 0.0
01 02:35 Calm 16.09 Fair CLR 21.5 19.5 88% 76.02 0.0
01 02:15 Calm 16.09 Fair CLR 21.4 20.3 93% 76.02 0.0
01 01:55 Calm 16.09 Fair CLR 21.8 20.6 93% 76.05 0.0
01 01:35 Calm 16.09 Fair CLR 21.8 20.5 92% 76.05 0.0
01 01:15 Calm 16.09 Fair CLR 22.2 20.6 91% 76.05 0.0
01 00:55 Calm 16.09 Fair CLR 22 20.4 31.6 22 91% 76.07 0.0
01 00:35 Calm 16.09 Fair CLR 22.3 20.5 90% 76.07 0.0
01 00:15 Calm 16.09 Fair CLR 22.5 20.7 90% 76.07 0.0
31 23:55 Calm 11.27 Fair CLR 23.1 21 88% 76.07 0.0
31 23:35 Calm 16.09 Fair CLR 23 21 89% 76.07 0.0
31 23:15 Calm 16.09 Fair CLR 23.1 20.8 87% 76.07 0.0
31 22:55 SE 6 16.09 Fair CLR 23.8 20.8 83% 76.1 0.0
31 22:35 Calm 16.09 Fair CLR 25.1 21.1 79% 26 76.07 0.0
31 22:15 Calm 16.09 Fair CLR 25.8 21.1 75% 27 76.07 0.0
31 21:55 Calm 16.09 Fair CLR 25.7 21.3 77% 27 76.05 0.0
31 21:35 E 6 16.09 Fair CLR 26.3 21.5 75% 28 76.02 0.0
31 21:15 Calm 16.09 Fair CLR 26.5 21.5 74% 28 76.02 0.0
31 20:55 Calm 16.09 Fair CLR 27 21.5 72% 29 76 0.0
31 20:35 Calm 16.09 Fair CLR 27.5 22.1 72% 30 76 0.0
31 20:15 E 6 16.09 Fair CLR 28.4 22.5 70% 32 76 0.0
31 19:55 Calm 16.09 Fair CLR 28.8 22.6 69% 32 76 0.0
31 19:35 Calm 16.09 Fair CLR 30.2 22 62% 34 76 0.0
31 19:15 Calm 16.09 Fair CLR 31.1 21.4 56% 34 76 0.0
Date Time (cdt) Wind (kph) Vis. (km) Weather Sky Cond. Air Dwpt Max. Min. Relative Humidity Wind Chill (°C) Heat Index (°C) altimeter (cm) sea level (mb) 1 hr 3 hr 6 hr
6 hour
Temperature (ºC) Pressure Precipitation (cm)